Погода Гуарараписна 2 недели

Сан-Паулу, Бразилия

15 - 28 июля
  • 15июля
    Сегодня
    +15°
    +28°
    Облачно с прояснениями
    ВремяПогодаТемператураВлажностьДавлениеВетер, м/сВероятность осадков
    00:00Ясно и безоблачно+18°C90 %730 мм3.5 м/с5 %
    03:00Ясно и безоблачно+16°C95 %729 мм2.9 м/с5 %
    06:00Ясно и безоблачно+16°C97 %730 мм2.4 м/с5 %
    09:00Ясно и безоблачно+19°C83 %732 мм1.5 м/с5 %
    12:00Небольшая облачность+25°C55 %732 мм1.7 м/с2 %
    15:00Облачно с прояснениями+27°C41 %730 мм0.5 м/с14 %
    18:00Облачно с прояснениями+26°C55 %730 мм1.2 м/с3 %
    21:00Небольшая облачность+22°C64 %731 мм3.5 м/с5 %
  • 16июля
    Вторник
    +16°
    +28°
    Облачно с прояснениями
    ВремяПогодаТемператураВлажностьДавлениеВетер, м/сВероятность осадков
    00:00Облачно с прояснениями+19°C77 %731 мм4.0 м/с5 %
    03:00Ясно и безоблачно+17°C80 %730 мм4.2 м/с5 %
    06:00Ясно и безоблачно+16°C84 %730 мм3.9 м/с5 %
    09:00Облачно с прояснениями+18°C72 %732 мм4.3 м/с5 %
    12:00Облачно с прояснениями+26°C51 %732 мм3.9 м/с5 %
    15:00Облачно с прояснениями+29°C37 %730 мм2.4 м/с5 %
    18:00Ясно и безоблачно+24°C55 %730 мм2.4 м/с5 %
    21:00Небольшая облачность+22°C60 %731 мм3.3 м/с5 %
  • 17июля
    Среда
    +16°
    +30°
    Ясно и безоблачно
    ВремяПогодаТемператураВлажностьДавлениеВетер, м/сВероятность осадков
    00:00Ясно и безоблачно+20°C68 %732 мм3.1 м/с5 %
    03:00Ясно и безоблачно+18°C78 %731 мм4.0 м/с5 %
    06:00Ясно и безоблачно+17°C87 %731 мм3.4 м/с5 %
    09:00Ясно и безоблачно+20°C73 %732 мм3.4 м/с5 %
    12:00Ясно и безоблачно+27°C49 %732 мм2.8 м/с5 %
    15:00Ясно и безоблачно+30°C37 %730 мм0.9 м/с5 %
    18:00Ясно и безоблачно+26°C49 %729 мм2.0 м/с5 %
    21:00Ясно и безоблачно+22°C61 %729 мм2.1 м/с5 %
  • 18июля
    Четверг
    +18°
    +30°
    Ясно и безоблачно
    ВремяПогодаТемператураВлажностьДавлениеВетер, м/сВероятность осадков
    00:00Ясно и безоблачно+20°C68 %729 мм2.6 м/с5 %
    03:00Ясно и безоблачно+18°C78 %728 мм2.3 м/с5 %
    06:00Ясно и безоблачно+17°C83 %728 мм3.1 м/с5 %
    09:00Ясно и безоблачно+20°C70 %731 мм2.9 м/с5 %
    12:00Ясно и безоблачно+29°C42 %731 мм3.7 м/с5 %
    15:00Ясно и безоблачно+31°C31 %729 мм1.8 м/с5 %
    18:00Ясно и безоблачно+26°C47 %728 мм2.4 м/с5 %
    21:00Ясно и безоблачно+24°C49 %729 мм3.1 м/с5 %
  • 19июля
    Пятница
    +17°
    +30°
    Ясно и безоблачно
    ВремяПогодаТемператураВлажностьДавлениеВетер, м/сВероятность осадков
    00:00Ясно и безоблачно+22°C56 %729 мм2.9 м/с5 %
    03:00Ясно и безоблачно+20°C57 %729 мм3.4 м/с5 %
    06:00Ясно и безоблачно+19°C65 %729 мм3.9 м/с5 %
    09:00Ясно и безоблачно+21°C58 %731 мм3.6 м/с5 %
    12:00Ясно и безоблачно+30°C36 %732 мм4.0 м/с5 %
    15:00Ясно и безоблачно+32°C28 %730 мм2.1 м/с5 %
    18:00Ясно и безоблачно+27°C43 %729 мм2.2 м/с5 %
    21:00Ясно и безоблачно+25°C47 %730 мм3.5 м/с5 %
Мы используем cookies
Соглашаюсь